METAR Data
IDs: Format: Raw Decoded Include TAF

Data at: 1452 UTC 11 Dec 2018

KFTW 111353Z 18004KT 10SM CLR 03/M01 A3032 RMK AO2 SLP269 T00281011
KFTW 111253Z 17005KT 10SM CLR 02/M02 A3031 RMK AO2 SLP267 T00221017
KFTW 111153Z 16003KT 10SM CLR 02/M01 A3032 RMK AO2 SLP268 T00221011 10056 20017 55007
KFTW 111053Z 15004KT 10SM CLR 02/M01 A3031 RMK AO2 SLP264 T00221011
KFTW 110953Z 13004KT 10SM CLR 03/M01 A3032 RMK AO2 SLP266 T00281006
KFTW 110853Z 16003KT 10SM CLR 04/M01 A3034 RMK AO2 SLP274 T00391006 55002
KFTW 110753Z 17004KT 10SM CLR 04/M01 A3034 RMK AO2 SLP273 T00441006
KFTW 110653Z 19005KT 10SM CLR 04/M01 A3034 RMK AO2 SLP274 T00441006
KFTW 110553Z 16005KT 10SM CLR 06/M01 A3034 RMK AO2 SLP275 T00561006 10100 20050 401441011 53001
KFTW 110453Z 19003KT 10SM CLR 07/M01 A3035 RMK AO2 SLP276 T00721011
KFTW 110353Z 00000KT 10SM CLR 07/M02 A3034 RMK AO2 SLP275 T00721022
KFTW 110253Z 17003KT 10SM CLR 07/M02 A3034 RMK AO2 SLP277 T00721022 50007
KFTW 110153Z 17003KT 10SM CLR 08/M03 A3034 RMK AO2 SLP277 T00831028
KFTW 110053Z 17004KT 10SM CLR 09/M03 A3033 RMK AO2 SLP274 T00941033
KFTW 102353Z 15005KT 10SM CLR 10/M04 A3032 RMK AO2 SLP269 T01001039 10144 20094 53002
KFTW 102253Z 20004KT 10SM CLR 13/M04 A3032 RMK AO2 SLP267 T01281039
KFTW 102153Z 00000KT 10SM CLR 14/M06 A3032 RMK AO2 SLP267 T01391056
KFTW 102053Z 06004KT 10SM CLR 14/M05 A3032 RMK AO2 SLP266 T01391050 56021
KFTW 101953Z VRB03KT 10SM CLR 14/M03 A3033 RMK AO2 SLP270 T01391028
KFTW 101853Z 00000KT 10SM CLR 12/M03 A3035 RMK AO2 SLP279 T01221028
KFTW 101753Z 29004KT 10SM CLR 11/M03 A3038 RMK AO2 SLP289 T01111033 10111 21011 58003
KFTW 101653Z 25004KT 10SM CLR 08/M01 A3040 RMK AO2 SLP298 T00831011
KFTW 101553Z 23003KT 10SM CLR 06/00 A3040 RMK AO2 SLP296 T00610000
KFTW 101453Z 00000KT 10SM CLR 02/00 A3039 RMK AO2 SLP294 T00220000 51015
KFTW 101353Z 34003KT 10SM CLR 00/M02 A3037 RMK AO2 SLP289 T00001017
KFTW 101253Z 22003KT 10SM CLR M01/M02 A3037 RMK AO2 SLP287 T10111017
KFTW 101153Z 00000KT 10SM CLR 00/M01 A3035 RMK AO2 SLP279 T00001011 10028 20000 55002
KFTW 101053Z 00000KT 10SM CLR 01/M01 A3034 RMK AO2 SLP277 T00061011
KFTW 100953Z 00000KT 10SM CLR 01/M02 A3034 RMK AO2 SLP277 T00111022
KFTW 100853Z 31003KT 10SM CLR 02/M02 A3035 RMK AO2 SLP280 T00171017 56006
KFTW 100753Z AUTO 00000KT 10SM CLR 02/M01 A3036 RMK AO2 SLP282 T00221011
KFTW 100653Z 30003KT 10SM CLR 02/M01 A3036 RMK AO2 SLP283 T00221011
KFTW 100553Z 29003KT 10SM CLR 02/M01 A3037 RMK AO2 SLP286 T00221011 10061 20022 401000017 50003
KFTW 100453Z 00000KT 10SM CLR 03/M02 A3038 RMK AO2 SLP290 T00281017
KFTW 100353Z 32004KT 10SM CLR 03/M02 A3037 RMK AO2 SLP287 T00331017
KFTW 100253Z 31006KT 10SM CLR 03/M01 A3036 RMK AO2 SLP284 T00331011 51011